createdAt,value
2019-05-20T00:00:21.511Z,8.40
2019-05-20T00:02:49.793Z,9.77
2019-05-20T00:05:17.628Z,9.60
2019-05-20T00:07:45.293Z,8.90
2019-05-20T00:10:13.889Z,9.40
2019-05-20T00:12:41.635Z,9.03
2019-05-20T00:15:09.421Z,9.67
2019-05-20T00:17:37.630Z,10.80
2019-05-20T00:20:06.073Z,10.93
2019-05-20T00:22:33.764Z,10.57
2019-05-20T00:25:01.762Z,11.33
2019-05-20T00:27:29.419Z,11.23
2019-05-20T00:29:57.399Z,12.30
2019-05-20T00:32:40.279Z,11.20
2019-05-20T00:34:55.548Z,12.40
2019-05-20T00:37:23.875Z,13.00
2019-05-20T00:39:51.909Z,12.33
2019-05-20T00:42:19.858Z,13.40
2019-05-20T00:44:48.104Z,12.70
2019-05-20T00:47:16.036Z,12.50
2019-05-20T00:49:43.773Z,13.03
2019-05-20T00:52:11.725Z,12.23
2019-05-20T00:54:39.898Z,12.13
2019-05-20T00:57:08.341Z,13.07
2019-05-20T00:59:36.280Z,12.30
2019-05-20T01:02:04.804Z,13.77
2019-05-20T01:04:32.930Z,14.37
2019-05-20T01:07:01.259Z,13.77
2019-05-20T01:09:29.772Z,13.87
2019-05-20T01:11:57.749Z,13.10
2019-05-20T01:14:25.463Z,13.63
2019-05-20T01:16:53.472Z,13.60
2019-05-20T01:19:21.513Z,13.27
2019-05-20T01:21:49.256Z,13.60
2019-05-20T01:24:17.203Z,14.77
2019-05-20T01:26:45.108Z,13.83
2019-05-20T01:29:13.041Z,15.07
2019-05-20T01:31:40.947Z,14.63
2019-05-20T01:34:08.857Z,15.23
2019-05-20T01:36:36.591Z,14.30
2019-05-20T01:39:05.090Z,15.63
2019-05-20T01:41:33.337Z,13.83
2019-05-20T01:44:00.988Z,14.97
2019-05-20T01:46:28.899Z,13.90
2019-05-20T01:48:57.123Z,14.80
2019-05-20T01:51:25.053Z,20.53
2019-05-20T01:53:52.728Z,22.13
2019-05-20T01:56:20.498Z,23.40
2019-05-20T01:58:48.332Z,25.00
2019-05-20T02:01:16.271Z,25.70
2019-05-20T02:03:44.180Z,29.30
2019-05-20T02:06:12.362Z,29.63
2019-05-20T02:08:40.280Z,31.60
2019-05-20T02:11:08.241Z,31.10
2019-05-20T02:14:01.888Z,32.90
2019-05-20T02:16:29.832Z,34.50
2019-05-20T02:18:58.009Z,33.37
2019-05-20T02:21:26.236Z,33.93
2019-05-20T02:23:53.896Z,35.37
2019-05-20T02:26:21.614Z,34.23
2019-05-20T02:28:49.821Z,36.37
2019-05-20T02:31:17.823Z,34.13
2019-05-20T02:33:51.874Z,36.30
2019-05-20T02:36:15.120Z,36.57
2019-05-20T02:38:43.314Z,35.57
2019-05-20T02:41:11.397Z,36.13
2019-05-20T02:43:39.433Z,37.97
2019-05-20T02:46:07.431Z,36.60
2019-05-20T02:51:07.917Z,35.23
2019-05-20T02:53:36.086Z,35.80
2019-05-20T02:56:03.854Z,37.40
2019-05-20T02:58:31.594Z,37.00
2019-05-20T03:00:59.341Z,36.67
2019-05-20T03:03:27.249Z,37.77
2019-05-20T03:05:55.216Z,37.20
2019-05-20T03:08:23.167Z,38.63
2019-05-20T03:10:51.372Z,38.23
2019-05-20T03:13:19.298Z,40.80
2019-05-20T03:15:47.265Z,40.37
2019-05-20T03:18:15.545Z,41.27
2019-05-20T03:20:43.269Z,41.73
2019-05-20T03:23:11.166Z,39.80
2019-05-20T03:25:39.091Z,40.80
2019-05-20T03:28:07.053Z,41.83
2019-05-20T03:30:34.709Z,42.27
2019-05-20T03:33:02.699Z,42.57
2019-05-20T03:35:30.448Z,42.57
2019-05-20T03:37:58.408Z,44.03
2019-05-20T03:40:26.668Z,43.47
2019-05-20T03:42:54.896Z,42.40
2019-05-20T03:45:22.542Z,44.00
2019-05-20T03:47:50.442Z,44.20
2019-05-20T03:50:18.418Z,43.20
2019-05-20T03:52:46.612Z,43.27
2019-05-20T03:55:14.537Z,41.70
2019-05-20T03:57:42.577Z,43.77
2019-05-20T04:00:10.577Z,43.67
2019-05-20T04:02:38.310Z,41.97
2019-05-20T04:05:06.357Z,41.80
2019-05-20T04:07:34.635Z,41.93
2019-05-20T04:10:03.109Z,40.90
2019-05-20T04:12:30.846Z,43.00
2019-05-20T04:14:59.081Z,44.07
2019-05-20T04:17:26.753Z,40.77
2019-05-20T04:19:54.531Z,42.50
2019-05-20T04:22:22.768Z,43.50
2019-05-20T04:24:50.532Z,42.17
2019-05-20T04:27:18.522Z,41.00
2019-05-20T04:29:46.513Z,42.70
2019-05-20T04:32:14.413Z,43.33
2019-05-20T04:34:42.137Z,43.57
2019-05-20T04:37:10.310Z,44.13
2019-05-20T04:39:38.658Z,43.87
2019-05-20T04:42:07.009Z,44.00
2019-05-20T04:44:35.497Z,42.90
2019-05-20T04:47:03.252Z,42.80
2019-05-20T04:49:33.757Z,41.03
2019-05-20T04:52:01.774Z,42.73
2019-05-20T04:54:29.869Z,43.00
2019-05-20T04:56:58.699Z,42.57
2019-05-20T04:59:26.700Z,42.63
2019-05-20T05:01:54.676Z,41.77
2019-05-20T05:04:22.868Z,41.00
2019-05-20T05:06:50.863Z,41.80
2019-05-20T05:09:19.313Z,41.80
2019-05-20T05:11:47.478Z,41.77
2019-05-20T05:14:15.782Z,40.77
2019-05-20T05:16:44.234Z,42.50
2019-05-20T05:19:12.228Z,40.80
2019-05-20T05:21:40.410Z,42.63
2019-05-20T05:24:08.458Z,41.63
2019-05-20T05:26:36.368Z,41.20
2019-05-20T05:29:04.350Z,41.00
2019-05-20T05:31:32.016Z,39.53
2019-05-20T05:33:59.946Z,38.60
2019-05-20T05:36:27.661Z,36.97
2019-05-20T05:38:55.591Z,38.47
2019-05-20T05:41:23.521Z,38.00
2019-05-20T05:43:51.221Z,37.90
2019-05-20T05:46:19.206Z,35.77
2019-05-20T05:48:46.893Z,36.57
2019-05-20T05:51:15.073Z,35.93
2019-05-20T05:53:43.010Z,36.77
2019-05-20T05:56:11.210Z,36.20
2019-05-20T05:58:39.124Z,37.50
2019-05-20T06:01:06.791Z,36.90
2019-05-20T06:03:34.785Z,36.90
2019-05-20T06:06:12.099Z,36.60
2019-05-20T06:08:32.921Z,36.70
2019-05-20T06:11:00.580Z,35.93
2019-05-20T06:13:28.572Z,37.30
2019-05-20T06:15:56.354Z,36.27
2019-05-20T06:18:24.405Z,36.47
2019-05-20T06:20:52.629Z,35.80
2019-05-20T06:23:20.285Z,36.73
2019-05-20T06:25:48.203Z,36.93
2019-05-20T06:28:16.096Z,35.70
2019-05-20T06:30:44.792Z,36.30
2019-05-20T06:33:12.497Z,35.87
2019-05-20T06:35:40.308Z,36.00
2019-05-20T06:38:12.250Z,34.40
2019-05-20T06:40:40.166Z,35.23
2019-05-20T06:43:08.172Z,37.13
2019-05-20T06:45:36.109Z,35.57
2019-05-20T06:48:04.205Z,36.50
2019-05-20T06:50:32.103Z,35.90
2019-05-20T06:53:00.217Z,37.37
2019-05-20T06:55:27.967Z,36.37
2019-05-20T06:57:56.228Z,38.07
2019-05-20T07:00:33.940Z,35.53
2019-05-20T07:03:01.878Z,36.73
2019-05-20T07:05:29.793Z,35.50
2019-05-20T07:08:01.052Z,35.90
2019-05-20T07:10:27.740Z,34.80
2019-05-20T07:12:55.658Z,34.50
2019-05-20T07:15:23.828Z,33.97
2019-05-20T07:17:52.040Z,34.90
2019-05-20T07:20:20.082Z,33.50
2019-05-20T07:22:56.229Z,34.20
2019-05-20T07:25:23.901Z,33.27
2019-05-20T07:27:52.771Z,31.07
2019-05-20T07:30:21.075Z,31.27
2019-05-20T07:32:49.118Z,31.47
2019-05-20T07:35:29.399Z,34.50
2019-05-20T07:37:47.115Z,34.67
2019-05-20T07:40:17.797Z,33.20
2019-05-20T07:42:46.210Z,35.83
2019-05-20T07:45:14.390Z,33.73
2019-05-20T07:47:44.678Z,32.30
2019-05-20T07:50:12.735Z,32.70
2019-05-20T07:52:40.901Z,33.10
2019-05-20T07:55:09.145Z,34.67
2019-05-20T07:57:38.562Z,33.63
2019-05-20T08:00:06.316Z,36.90
2019-05-20T08:02:34.069Z,35.70
2019-05-20T08:05:03.038Z,35.33
2019-05-20T08:07:50.687Z,34.57
2019-05-20T08:10:01.457Z,34.60
2019-05-20T08:12:29.170Z,34.50
2019-05-20T08:14:57.595Z,32.90
2019-05-20T08:17:25.286Z,34.43
2019-05-20T08:19:53.223Z,36.70
2019-05-20T08:22:20.894Z,39.10
2019-05-20T08:24:48.804Z,38.27
2019-05-20T08:27:17.077Z,38.43
2019-05-20T08:29:45.102Z,39.83
2019-05-20T08:32:13.402Z,38.37
2019-05-20T08:34:41.122Z,38.90
2019-05-20T08:37:08.832Z,39.50
2019-05-20T08:39:36.535Z,41.20
2019-05-20T08:42:04.922Z,39.17
2019-05-20T08:44:34.024Z,39.50
2019-05-20T08:47:02.176Z,41.57
2019-05-20T08:49:30.478Z,40.00
2019-05-20T08:51:58.733Z,39.43
2019-05-20T08:54:27.155Z,37.73
2019-05-20T08:56:55.454Z,38.23
2019-05-20T08:59:23.906Z,37.67
2019-05-20T09:01:52.253Z,36.17
2019-05-20T09:04:20.328Z,35.23
2019-05-20T09:06:48.003Z,32.23
2019-05-20T09:09:15.989Z,30.53
2019-05-20T09:11:47.307Z,30.60
2019-05-20T09:14:14.085Z,29.03
2019-05-20T09:16:42.569Z,27.90
2019-05-20T09:19:10.945Z,27.43
2019-05-20T09:21:38.871Z,28.80
2019-05-20T09:24:06.875Z,27.70
2019-05-20T09:26:35.174Z,30.03
2019-05-20T09:29:02.972Z,28.53
2019-05-20T09:31:30.944Z,29.97
2019-05-20T09:33:58.925Z,29.77
2019-05-20T09:36:26.964Z,28.67
2019-05-20T09:38:55.382Z,26.50
2019-05-20T09:41:23.596Z,25.53
2019-05-20T09:43:51.261Z,25.30
2019-05-20T09:46:19.421Z,25.17
2019-05-20T09:48:47.536Z,25.10
2019-05-20T09:51:16.189Z,24.70
2019-05-20T09:53:44.266Z,25.50
2019-05-20T09:56:12.588Z,25.90
2019-05-20T09:58:41.224Z,24.57
2019-05-20T10:01:09.565Z,25.10
2019-05-20T10:03:38.068Z,25.30
2019-05-20T10:06:06.984Z,25.30
2019-05-20T10:08:40.891Z,26.00
2019-05-20T10:11:04.305Z,25.30
2019-05-20T10:13:32.501Z,25.10
2019-05-20T10:16:00.737Z,25.30
2019-05-20T10:18:37.269Z,27.17
2019-05-20T10:20:59.601Z,26.47
2019-05-20T10:23:27.632Z,25.17
2019-05-20T10:25:55.631Z,27.03
2019-05-20T10:28:23.978Z,27.37
2019-05-20T10:30:52.415Z,27.00
2019-05-20T10:33:20.577Z,26.40
2019-05-20T10:35:49.057Z,27.37
2019-05-20T10:38:17.455Z,28.50
2019-05-20T10:40:45.521Z,26.60
2019-05-20T10:43:13.252Z,25.77
2019-05-20T10:45:41.840Z,27.37
2019-05-20T10:48:09.545Z,30.20
2019-05-20T10:50:37.550Z,27.23
2019-05-20T10:53:05.620Z,27.03
2019-05-20T10:55:33.628Z,27.80
2019-05-20T10:58:01.826Z,27.37
2019-05-20T11:00:29.914Z,29.30
2019-05-20T11:02:58.369Z,27.90
2019-05-20T11:05:26.408Z,29.53
2019-05-20T11:07:54.406Z,28.90
2019-05-20T11:10:22.451Z,29.70
2019-05-20T11:12:50.780Z,29.97
2019-05-20T11:15:18.887Z,28.80
2019-05-20T11:17:46.911Z,29.23
2019-05-20T11:20:15.380Z,28.50
2019-05-20T11:22:43.664Z,26.27
2019-05-20T11:25:12.034Z,29.63
2019-05-20T11:27:40.118Z,26.97
2019-05-20T11:30:09.271Z,27.87
2019-05-20T11:32:37.329Z,29.40
2019-05-20T11:35:05.713Z,29.37
2019-05-20T11:37:34.036Z,29.63
2019-05-20T11:40:01.899Z,30.50
2019-05-20T11:42:30.578Z,31.27
2019-05-20T11:44:58.768Z,31.30
2019-05-20T11:47:26.821Z,30.63
2019-05-20T11:49:54.911Z,29.50
2019-05-20T11:52:23.113Z,30.80
2019-05-20T11:54:50.801Z,30.90
2019-05-20T11:57:19.075Z,29.20
2019-05-20T11:59:47.447Z,29.17
2019-05-20T12:02:15.479Z,28.00
2019-05-20T12:04:43.451Z,29.47
2019-05-20T12:07:11.186Z,28.10
2019-05-20T12:09:48.907Z,28.50
2019-05-20T12:12:08.776Z,29.20
2019-05-20T12:14:37.046Z,27.77
2019-05-20T12:17:05.409Z,27.07
2019-05-20T12:19:33.697Z,29.07
2019-05-20T12:22:01.922Z,29.87
2019-05-20T12:24:30.121Z,29.17
2019-05-20T12:26:58.117Z,30.27
2019-05-20T12:29:26.152Z,30.40
2019-05-20T12:31:53.880Z,29.93
2019-05-20T12:34:23.755Z,30.00
2019-05-20T12:36:52.014Z,29.37
2019-05-20T12:39:20.243Z,31.70
2019-05-20T12:41:48.624Z,31.57
2019-05-20T12:44:16.679Z,30.60
2019-05-20T12:46:44.610Z,32.33
2019-05-20T12:49:12.420Z,33.03
2019-05-20T12:51:40.525Z,30.77
2019-05-20T12:54:08.512Z,31.20
2019-05-20T12:56:36.841Z,30.93
2019-05-20T12:59:04.922Z,31.73
2019-05-20T13:01:33.142Z,31.40
2019-05-20T13:04:00.866Z,31.20
2019-05-20T13:06:28.866Z,30.70
2019-05-20T13:08:56.514Z,30.93
2019-05-20T13:11:24.798Z,30.50
2019-05-20T13:13:53.036Z,31.60
2019-05-20T13:16:21.082Z,31.20
2019-05-20T13:18:56.028Z,30.80
2019-05-20T13:21:19.830Z,30.47
2019-05-20T13:23:49.179Z,29.97
2019-05-20T13:26:17.566Z,31.10
2019-05-20T13:28:45.264Z,31.40
2019-05-20T13:31:13.230Z,29.47
2019-05-20T13:33:40.927Z,29.40
2019-05-20T13:36:09.274Z,29.17
2019-05-20T13:38:36.942Z,29.10
2019-05-20T13:41:04.650Z,30.60
2019-05-20T13:43:32.340Z,29.90
2019-05-20T13:46:00.256Z,30.10
2019-05-20T13:48:28.291Z,30.30
2019-05-20T13:50:56.212Z,33.17
2019-05-20T13:53:24.277Z,32.70
2019-05-20T13:55:52.107Z,32.10
2019-05-20T13:58:19.958Z,30.80
2019-05-20T14:00:47.970Z,31.43
2019-05-20T14:03:16.066Z,30.60
2019-05-20T14:05:43.769Z,31.33
2019-05-20T14:08:11.461Z,30.70
2019-05-20T14:10:39.503Z,31.00
2019-05-20T14:13:08.197Z,29.80
2019-05-20T14:15:36.320Z,29.53
2019-05-20T14:18:04.838Z,30.50
2019-05-20T14:20:33.011Z,30.03
2019-05-20T14:23:01.343Z,30.93
2019-05-20T14:25:29.614Z,31.47
2019-05-20T14:27:57.573Z,30.10
2019-05-20T14:30:25.809Z,29.43
2019-05-20T14:32:53.610Z,29.33
2019-05-20T14:35:21.638Z,29.60
2019-05-20T14:37:49.325Z,30.00
2019-05-20T14:40:17.603Z,30.27
2019-05-20T14:42:45.672Z,30.23
2019-05-20T14:45:14.164Z,29.27
2019-05-20T14:47:42.941Z,29.97
2019-05-20T14:50:10.960Z,30.00
2019-05-20T14:52:39.173Z,28.63
2019-05-20T14:55:07.357Z,27.83
2019-05-20T14:57:35.420Z,29.00
2019-05-20T15:00:03.403Z,29.57
2019-05-20T15:02:31.542Z,28.50
2019-05-20T15:04:59.440Z,27.70
2019-05-20T15:07:30.733Z,29.80
2019-05-20T15:09:57.368Z,31.03
2019-05-20T15:12:25.388Z,30.47
2019-05-20T15:14:53.335Z,30.30
2019-05-20T15:17:21.422Z,30.10
2019-05-20T15:19:49.804Z,31.10
2019-05-20T15:22:18.295Z,31.23
2019-05-20T15:24:46.773Z,32.40
2019-05-20T15:27:15.158Z,30.77
2019-05-20T15:29:43.152Z,31.47
2019-05-20T15:32:11.710Z,29.93
2019-05-20T15:34:39.351Z,30.73
2019-05-20T15:37:07.058Z,31.73
2019-05-20T15:39:34.734Z,29.90
2019-05-20T15:42:03.491Z,30.37
2019-05-20T15:44:31.924Z,29.80
2019-05-20T15:46:59.886Z,30.63
2019-05-20T15:49:28.200Z,29.07
2019-05-20T15:51:56.245Z,30.67
2019-05-20T15:54:24.678Z,31.63
2019-05-20T15:56:52.702Z,30.10
2019-05-20T15:59:21.015Z,30.77
2019-05-20T16:01:49.093Z,30.07
2019-05-20T16:04:16.765Z,29.10
2019-05-20T16:06:45.114Z,29.60
2019-05-20T16:09:16.975Z,29.77
2019-05-20T16:11:43.200Z,28.13
2019-05-20T16:14:11.381Z,29.07
2019-05-20T16:16:39.024Z,27.53
2019-05-20T16:19:06.751Z,28.20
2019-05-20T16:21:34.498Z,28.93
2019-05-20T16:24:02.885Z,28.77
2019-05-20T16:26:31.514Z,27.27
2019-05-20T16:28:59.498Z,28.13
2019-05-20T16:31:27.174Z,27.50
2019-05-20T16:33:59.362Z,27.77
2019-05-20T16:36:26.239Z,26.97
2019-05-20T16:38:54.566Z,26.67
2019-05-20T16:41:22.389Z,26.20
2019-05-20T16:43:50.531Z,26.57
2019-05-20T16:46:18.600Z,27.60
2019-05-20T16:48:46.260Z,27.00
2019-05-20T16:51:15.038Z,28.27
2019-05-20T16:53:43.020Z,28.10
2019-05-20T16:56:11.100Z,27.33
2019-05-20T16:58:39.763Z,27.13
2019-05-20T17:01:07.950Z,26.53
2019-05-20T17:03:38.935Z,26.00
2019-05-20T17:06:09.522Z,28.50
2019-05-20T17:08:40.218Z,27.23
2019-05-20T17:11:13.583Z,26.07
2019-05-20T17:13:41.636Z,26.00
2019-05-20T17:16:09.780Z,24.47
2019-05-20T17:18:37.800Z,24.97
2019-05-20T17:21:13.649Z,24.70
2019-05-20T17:23:41.525Z,24.40
2019-05-20T17:26:17.269Z,23.47
2019-05-20T17:28:45.345Z,23.20
2019-05-20T17:31:15.503Z,22.90
2019-05-20T17:33:45.645Z,22.07
2019-05-20T17:36:13.971Z,21.73
2019-05-20T17:38:42.104Z,22.30
2019-05-20T17:41:10.217Z,22.00
2019-05-20T17:43:37.913Z,21.80
2019-05-20T17:46:05.885Z,22.03
2019-05-20T17:48:33.974Z,21.33
2019-05-20T17:51:01.993Z,20.97
2019-05-20T17:53:29.933Z,20.43
2019-05-20T17:55:57.989Z,21.27
2019-05-20T17:58:26.061Z,21.67
2019-05-20T18:00:54.134Z,20.93
2019-05-20T18:03:22.384Z,22.43
2019-05-20T18:05:51.273Z,21.10
2019-05-20T18:08:19.746Z,21.90
2019-05-20T18:10:47.989Z,21.60
2019-05-20T18:13:16.002Z,20.80
2019-05-20T18:15:46.368Z,21.47
2019-05-20T18:18:14.230Z,20.63
2019-05-20T18:20:42.632Z,19.70
2019-05-20T18:23:10.746Z,21.30
2019-05-20T18:25:38.657Z,20.50
2019-05-20T18:28:06.417Z,20.37
2019-05-20T18:30:34.725Z,20.83
2019-05-20T18:33:02.405Z,20.33
2019-05-20T18:35:30.401Z,20.30
2019-05-20T18:37:58.271Z,21.07
2019-05-20T18:40:26.753Z,20.80
2019-05-20T18:42:54.689Z,21.87
2019-05-20T18:45:22.580Z,21.20
2019-05-20T18:47:51.240Z,20.13
2019-05-20T18:50:19.378Z,20.80
2019-05-20T18:52:47.635Z,19.87
2019-05-20T18:55:15.636Z,19.57
2019-05-20T18:57:43.602Z,20.80
2019-05-20T19:00:12.441Z,21.13
2019-05-20T19:02:40.098Z,20.00
2019-05-20T19:05:08.151Z,18.60
2019-05-20T19:07:35.902Z,20.40
2019-05-20T19:10:03.836Z,20.23
2019-05-20T19:12:32.396Z,20.40
2019-05-20T19:15:00.220Z,19.40
2019-05-20T19:17:28.039Z,19.77
2019-05-20T19:19:55.799Z,19.77
2019-05-20T19:22:24.181Z,20.03
2019-05-20T19:24:52.544Z,19.97
2019-05-20T19:27:20.266Z,20.10
2019-05-20T19:29:48.889Z,20.30
2019-05-20T19:32:18.509Z,19.17
2019-05-20T19:34:46.779Z,18.73
2019-05-20T19:37:14.782Z,20.30
2019-05-20T19:39:42.497Z,20.47
2019-05-20T19:42:10.796Z,20.13
2019-05-20T19:44:38.741Z,20.57
2019-05-20T19:47:07.147Z,20.60
2019-05-20T19:49:34.989Z,19.73
2019-05-20T19:52:02.780Z,20.83
2019-05-20T19:54:30.789Z,22.63
2019-05-20T19:56:58.483Z,20.67
2019-05-20T19:59:26.891Z,22.60
2019-05-20T20:01:54.952Z,19.63
2019-05-20T20:04:23.236Z,21.70
2019-05-20T20:06:51.339Z,21.40
2019-05-20T20:09:19.367Z,20.00
2019-05-20T20:11:47.149Z,21.97
2019-05-20T20:14:15.188Z,20.87
2019-05-20T20:16:43.229Z,21.37
2019-05-20T20:19:10.920Z,20.00
2019-05-20T20:21:39.765Z,20.83
2019-05-20T20:24:09.393Z,21.70
2019-05-20T20:26:38.015Z,22.20
2019-05-20T20:29:06.290Z,19.90
2019-05-20T20:31:34.855Z,20.03
2019-05-20T20:34:02.861Z,21.40
2019-05-20T20:36:31.099Z,20.90
2019-05-20T20:38:59.610Z,21.80
2019-05-20T20:41:27.373Z,20.03
2019-05-20T20:43:55.347Z,21.23
2019-05-20T20:46:23.412Z,22.70
2019-05-20T20:48:51.056Z,22.20
2019-05-20T20:51:19.208Z,22.03
2019-05-20T20:53:47.200Z,22.03
2019-05-20T20:56:24.582Z,22.33
2019-05-20T20:58:45.442Z,23.67
2019-05-20T21:01:13.677Z,23.80
2019-05-20T21:03:41.707Z,23.33
2019-05-20T21:06:09.763Z,23.30
2019-05-20T21:08:37.829Z,25.07
2019-05-20T21:11:06.182Z,24.77
2019-05-20T21:13:34.142Z,25.03
2019-05-20T21:16:01.831Z,25.63
2019-05-20T21:18:29.794Z,26.83
2019-05-20T21:20:57.694Z,26.60
2019-05-20T21:23:25.658Z,27.40
2019-05-20T21:25:53.707Z,26.50
2019-05-20T21:28:22.043Z,26.90
2019-05-20T21:30:50.054Z,27.47
2019-05-20T21:33:18.076Z,27.10
2019-05-20T21:35:46.294Z,26.67
2019-05-20T21:38:14.574Z,27.60
2019-05-20T21:40:42.231Z,28.40
2019-05-20T21:43:10.286Z,27.07
2019-05-20T21:45:38.707Z,25.90
2019-05-20T21:48:06.383Z,27.13
2019-05-20T21:50:34.709Z,24.40
2019-05-20T21:53:02.726Z,26.10
2019-05-20T21:55:30.905Z,25.40
2019-05-20T21:57:58.649Z,25.60
2019-05-20T22:00:32.875Z,25.17
2019-05-20T22:03:01.445Z,25.27
2019-05-20T22:05:29.559Z,25.30
2019-05-20T22:07:57.548Z,25.00
2019-05-20T22:10:25.858Z,25.27
2019-05-20T22:12:54.073Z,25.80
2019-05-20T22:15:22.395Z,27.10
2019-05-20T22:17:50.354Z,26.70
2019-05-20T22:20:18.258Z,26.90
2019-05-20T22:22:51.042Z,25.30
2019-05-20T22:25:19.108Z,28.27
2019-05-20T22:27:47.282Z,26.30
2019-05-20T22:30:15.361Z,24.83
2019-05-20T22:32:43.972Z,25.90
2019-05-20T22:35:12.196Z,26.53
2019-05-20T22:37:40.259Z,26.10
2019-05-20T22:40:08.475Z,24.63
2019-05-20T22:42:36.177Z,24.80
2019-05-20T22:45:04.309Z,23.60
2019-05-20T22:47:31.969Z,24.63
2019-05-20T22:49:59.626Z,22.80
2019-05-20T22:52:27.556Z,24.40
2019-05-20T22:54:55.247Z,24.30
2019-05-20T22:57:23.180Z,23.30
2019-05-20T22:59:51.081Z,24.27
2019-05-20T23:02:19.052Z,24.80
2019-05-20T23:04:46.764Z,21.23
2019-05-20T23:07:14.865Z,23.53
2019-05-20T23:09:42.857Z,23.67
2019-05-20T23:12:11.463Z,22.33
2019-05-20T23:14:39.425Z,24.67
2019-05-20T23:17:07.501Z,25.30
2019-05-20T23:19:43.155Z,24.80
2019-05-20T23:22:10.841Z,25.60
2019-05-20T23:24:39.381Z,27.70
2019-05-20T23:27:07.544Z,28.50
2019-05-20T23:29:35.600Z,28.83
2019-05-20T23:32:03.405Z,30.60
2019-05-20T23:34:31.245Z,31.33
2019-05-20T23:36:59.587Z,32.27
2019-05-20T23:39:27.377Z,32.93
2019-05-20T23:41:56.048Z,32.67
2019-05-20T23:44:23.781Z,34.10
2019-05-20T23:46:52.268Z,34.07
2019-05-20T23:49:20.204Z,35.80
2019-05-20T23:51:48.464Z,34.53
2019-05-20T23:54:16.725Z,34.47
2019-05-20T23:56:44.680Z,35.00
2019-05-20T23:59:12.615Z,32.93
